Point Clair, Louisiana
Current Conditions -  °F | °C
As of 1:35 AM on Sunday 23 Nov 2014 (Local Time) from KL38 Reporting Station
Overcast Overcast  
Wind Chill: 62°   Ceiling: 300
Heat Index: 62°   Visibility: 7mi
Dew Point: 62°   Wind: 6mph
Humidity: 100%   Direction: 80°E
Pressure: 29.8"   Gusts: NA
Location:  30.215°N, 91.1157°W
Report Text: KL38 230735Z AUTO 08005KT 7SM OVC003 17/17 A2980 RMK AO2 T01680168
Loading
Personal Weather Stations






























Interactive Weather Map New forecast layout! Learn more

10-Day Weather Forecast

Advertisements
Track Severe Weather on mobile